• Join FlightAware (Why Join?)
  • Login
  • US Flag 
06:12PM EDT


 

Airport Tracker/Info


-or-


 

Live Flight TrackerFlight Track Log ✈ RPA4911 ✈ 02-Jul-2013 ✈ KALB - KEWR

Flight Track Log - Related Links

Times and Time Zones

All times are in EDT time to prevent confusion due to time zone crossing. See the RPA4911 flight status page for this flight to view local times or setup timezone preferences in your user account.

Time Position Orientation Groundspeed Altitude Reporting Facility
EDT Latitude Longitude Course Direction KTS MPH feet Rate Location/Type
06:38AM 42.7694 -73.8089 200° South 166 191 1,300  Level Boston Center
06:40AM 42.8147 -73.8553 323° Northwest 219 252 3,800 2,340 Climbing Boston Center
06:41AM 42.4826 -73.8509 196° South  Level Estimated
06:41AM 42.7642 -73.8853 204° Southwest 203 234 6,400  Level Boston Center
06:42AM 42.3938 -73.8671 197° South  Level Estimated
06:42AM 42.7100 -73.9008 192° South 216 249 8,600  Level Boston Center
06:43AM 42.3200 -73.9360 215° Southwest  Level FlightAware Approximate
06:43AM 42.6514 -73.9194 193° South 221 254 10,500  Level Boston Center
06:44AM 42.2309 -73.9490 200° South  Level Estimated
06:44AM 42.5781 -73.9372 190° South 234 269 11,700  Level Boston Center
06:45AM 42.5092 -73.9553 191° South 270 311 12,500 660 Climbing Boston Center
06:46AM 42.4192 -73.9814 192° South 298 343 13,100 600 Climbing Boston Center
06:47AM 42.3439 -74.0019 191° South 309 356 13,700 420 Climbing Boston Center
06:48AM 42.2475 -74.0275 191° South 316 364 14,000 120 Climbing Boston Center
06:49AM 42.1719 -74.0619 199° South 316 364 14,000  Level Boston Center
06:50AM 42.0819 -74.1017 198° South 316 364 14,000  Level Boston Center
06:51AM 41.9981 -74.1358 197° South 316 364 14,100  Climbing Boston Center
06:52AM 41.9203 -74.1700 198° South 322 371 14,100  Level Boston Center
06:53AM 41.8281 -74.2119 199° South 328 377 14,100 -60 Level Boston Center
06:54AM 41.7503 -74.2461 198° South 323 372 14,000 -780 Descending Boston Center
06:55AM 41.6642 -74.2853 199° South 317 365 12,600 -1,620 Descending Boston Center
06:56AM 41.5928 -74.3136 197° South 305 351 10,800 -1,800 Descending Boston Center
06:57AM 41.5153 -74.3475 198° South 280 322 9,100 -1,260 Descending Boston Center
06:59AM 41.3833 -74.3833 192° South 248 285 7,100 -960 Descending New York TRACON
07:00AM 41.3167 -74.3500 159° South 257 296 6,300 -540 Descending New York TRACON
07:01AM 41.2500 -74.3167 159° South 254 292 6,100 -600 Descending New York TRACON
07:02AM 41.1833 -74.2667 151° Southeast 251 289 5,100 -600 Descending New York TRACON
07:03AM 41.1333 -74.2333 153° Southeast 244 281 4,900 -540 Descending New York TRACON
07:04AM 41.0667 -74.2000 159° South 241 277 4,100 -420 Descending New York TRACON
07:05AM 41.0000 -74.1500 150° Southeast 243 280 4,100  Level New York TRACON
07:06AM 40.9500 -74.1167 153° Southeast 244 281 4,100 -540 Level New York TRACON
07:07AM 40.8833 -74.0833 159° South 239 275 3,100 -780 Descending New York TRACON
07:08AM 40.8167 -74.0833 180° South 228 262 2,600 -540 Descending New York TRACON